createdAt,value
2023-01-17T00:00:03.761Z,982.51
2023-01-17T00:05:03.339Z,982.36
2023-01-17T00:10:03.453Z,982.33
2023-01-17T00:15:03.681Z,982.3
2023-01-17T00:20:03.096Z,982.23
2023-01-17T00:25:02.887Z,982.31
2023-01-17T00:30:03.599Z,982.26
2023-01-17T00:35:03.499Z,982.17
2023-01-17T00:40:03.197Z,982.09
2023-01-17T00:45:02.883Z,982.02
2023-01-17T00:50:03.609Z,982.09
2023-01-17T00:55:03.293Z,982.07
2023-01-17T01:00:03.467Z,982.07
2023-01-17T01:05:03.159Z,982.08
2023-01-17T01:10:02.966Z,982.05
2023-01-17T01:15:02.698Z,982.11
2023-01-17T01:20:03.435Z,982.16
2023-01-17T01:25:03.545Z,982.15
2023-01-17T01:30:02.731Z,982.12
2023-01-17T01:35:03.498Z,982.18
2023-01-17T01:40:03.149Z,982.2
2023-01-17T01:45:02.859Z,982.18
2023-01-17T01:50:03.566Z,982.2
2023-01-17T01:55:03.750Z,982.15
2023-01-17T02:00:03.147Z,982.24
2023-01-17T02:05:05.303Z,982.33
2023-01-17T02:10:02.983Z,982.29
2023-01-17T02:15:03.381Z,982.25
2023-01-17T02:20:03.019Z,982.23
2023-01-17T02:25:02.748Z,982.33
2023-01-17T02:30:03.594Z,982.25
2023-01-17T02:35:03.254Z,982.31
2023-01-17T02:40:03.133Z,982.26
2023-01-17T02:45:03.363Z,982.28
2023-01-17T02:50:03.111Z,982.28
2023-01-17T02:55:02.933Z,982.41
2023-01-17T03:00:02.752Z,982.47
2023-01-17T03:05:03.389Z,982.51
2023-01-17T03:10:03.248Z,982.56
2023-01-17T03:15:03.012Z,982.55
2023-01-17T03:20:02.860Z,982.49
2023-01-17T03:25:02.688Z,982.53
2023-01-17T03:30:03.550Z,982.68
2023-01-17T03:35:03.055Z,982.59
2023-01-17T03:40:02.985Z,982.81
2023-01-17T03:45:02.811Z,982.87
2023-01-17T03:50:02.831Z,982.99
2023-01-17T03:55:03.936Z,983.08
2023-01-17T04:00:03.963Z,983.18
2023-01-17T04:05:02.785Z,983.48
2023-01-17T04:10:03.403Z,983.41
2023-01-17T04:15:03.290Z,983.44
2023-01-17T04:20:03.086Z,983.43
2023-01-17T04:25:03.184Z,983.58
2023-01-17T04:30:02.721Z,983.67
2023-01-17T04:35:03.313Z,983.66
2023-01-17T04:40:03.365Z,983.77
2023-01-17T04:45:03.184Z,983.81
2023-01-17T04:50:03.052Z,983.77
2023-01-17T04:55:03.576Z,983.81
2023-01-17T05:00:03.457Z,983.86
2023-01-17T05:05:03.369Z,983.97
2023-01-17T05:10:03.298Z,983.95
2023-01-17T05:15:03.252Z,984.1
2023-01-17T05:20:03.415Z,984.19
2023-01-17T05:25:03.250Z,984.25
2023-01-17T05:30:02.995Z,984.41
2023-01-17T05:35:02.840Z,984.51
2023-01-17T05:40:02.949Z,984.55
2023-01-17T05:45:02.907Z,984.6
2023-01-17T05:50:03.000Z,984.67
2023-01-17T05:55:02.733Z,984.82
2023-01-17T06:00:03.647Z,984.77
2023-01-17T06:05:04.246Z,984.78
2023-01-17T06:10:03.511Z,984.96
2023-01-17T06:15:03.324Z,985.13
2023-01-17T06:20:03.135Z,985.14
2023-01-17T06:25:03.165Z,985.19
2023-01-17T06:30:03.042Z,985.12
2023-01-17T06:35:02.909Z,985.21
2023-01-17T06:40:03.362Z,985.24
2023-01-17T06:45:03.435Z,985.28
2023-01-17T06:50:03.221Z,985.37
2023-01-17T06:55:03.038Z,985.57
2023-01-17T07:00:02.824Z,985.6
2023-01-17T07:05:02.776Z,985.76
2023-01-17T07:10:03.471Z,985.77
2023-01-17T07:15:03.281Z,985.97
2023-01-17T07:20:03.195Z,986
2023-01-17T07:25:03.247Z,985.96
2023-01-17T07:30:02.901Z,986.09
2023-01-17T07:35:02.675Z,986.14
2023-01-17T07:40:03.474Z,986.32
2023-01-17T07:45:02.779Z,986.31
2023-01-17T07:50:03.515Z,986.33
2023-01-17T07:55:03.610Z,986.36
2023-01-17T08:00:03.224Z,986.38
2023-01-17T08:05:02.772Z,986.35
2023-01-17T08:10:02.921Z,986.39
2023-01-17T08:15:03.466Z,986.57
2023-01-17T08:20:03.284Z,986.5
2023-01-17T08:25:03.177Z,986.44
2023-01-17T08:30:03.141Z,986.33
2023-01-17T08:35:03.096Z,986.57
2023-01-17T08:40:03.071Z,986.57
2023-01-17T08:45:02.762Z,986.64
2023-01-17T08:50:03.434Z,986.64
2023-01-17T08:55:03.433Z,986.83
2023-01-17T09:00:02.942Z,986.92
2023-01-17T09:05:02.757Z,987.01
2023-01-17T09:10:03.511Z,987.08
2023-01-17T09:15:03.267Z,987.28
2023-01-17T09:20:02.939Z,987.32
2023-01-17T09:25:02.689Z,987.44
2023-01-17T09:30:02.884Z,987.43
2023-01-17T09:35:02.862Z,987.58
2023-01-17T09:40:02.701Z,987.62
2023-01-17T09:45:03.583Z,987.71
2023-01-17T09:50:03.264Z,987.7
2023-01-17T09:55:03.097Z,987.82
2023-01-17T10:00:04.692Z,987.78
2023-01-17T10:05:04.084Z,987.78
2023-01-17T10:10:03.172Z,987.75
2023-01-17T10:15:03.035Z,987.94
2023-01-17T10:20:02.671Z,987.88
2023-01-17T10:25:03.368Z,988.14
2023-01-17T10:30:03.266Z,988.14
2023-01-17T10:35:02.821Z,988.19
2023-01-17T10:40:03.583Z,988.06
2023-01-17T10:45:03.433Z,988.12
2023-01-17T10:50:03.138Z,988.09
2023-01-17T10:55:03.387Z,988.17
2023-01-17T11:00:02.820Z,988.23
2023-01-17T11:05:02.746Z,988.34
2023-01-17T11:10:03.594Z,988.31
2023-01-17T11:15:03.638Z,988.28
2023-01-17T11:20:03.412Z,988.29
2023-01-17T11:25:03.268Z,988.33
2023-01-17T11:30:03.032Z,988.27
2023-01-17T11:35:02.822Z,988.25
2023-01-17T11:40:03.558Z,988.34
2023-01-17T11:45:03.501Z,988.36
2023-01-17T11:50:03.220Z,988.33
2023-01-17T11:55:03.413Z,988.41
2023-01-17T12:00:03.618Z,988.37
2023-01-17T12:05:03.924Z,988.35
2023-01-17T12:10:03.178Z,988.4
2023-01-17T12:15:02.932Z,988.38
2023-01-17T12:20:03.235Z,988.42
2023-01-17T12:25:02.761Z,988.48
2023-01-17T12:30:03.437Z,988.43
2023-01-17T12:35:03.242Z,988.45
2023-01-17T12:40:03.179Z,988.41
2023-01-17T12:45:02.752Z,988.43
2023-01-17T12:50:03.708Z,988.53
2023-01-17T12:55:03.860Z,988.65
2023-01-17T13:00:03.418Z,988.61
2023-01-17T13:05:02.925Z,988.72
2023-01-17T13:10:02.966Z,988.72
2023-01-17T13:15:03.599Z,988.82
2023-01-17T13:20:03.725Z,988.91
2023-01-17T13:25:03.312Z,988.95
2023-01-17T13:30:03.095Z,989.08
2023-01-17T13:35:02.720Z,989.23
2023-01-17T13:40:02.857Z,989.15
2023-01-17T13:45:03.730Z,989.34
2023-01-17T13:50:03.375Z,989.34
2023-01-17T13:55:03.376Z,989.45
2023-01-17T14:00:02.896Z,989.49
2023-01-17T14:05:02.817Z,989.52
2023-01-17T14:10:03.538Z,989.55
2023-01-17T14:15:03.330Z,989.53
2023-01-17T14:20:03.203Z,989.59
2023-01-17T14:25:02.981Z,989.66
2023-01-17T14:30:02.705Z,989.94
2023-01-17T14:35:03.442Z,989.84
2023-01-17T14:40:03.484Z,989.97
2023-01-17T14:45:03.360Z,989.99
2023-01-17T14:50:03.301Z,989.93
2023-01-17T14:55:03.165Z,990.07
2023-01-17T15:00:03.121Z,990.02
2023-01-17T15:05:03.605Z,990.05
2023-01-17T15:10:03.576Z,990.07
2023-01-17T15:15:03.444Z,989.98
2023-01-17T15:20:03.815Z,990.08
2023-01-17T15:25:03.417Z,990.11
2023-01-17T15:30:03.725Z,990.17
2023-01-17T15:35:03.031Z,990.06
2023-01-17T15:40:03.847Z,990.05
2023-01-17T15:45:02.946Z,990.21
2023-01-17T15:50:04.074Z,990.28
2023-01-17T15:55:03.467Z,990.34
2023-01-17T16:00:03.085Z,990.34
2023-01-17T16:05:02.880Z,990.42
2023-01-17T16:10:02.703Z,990.4
2023-01-17T16:15:15.862Z,990.45
2023-01-17T16:20:02.718Z,990.38
2023-01-17T16:25:03.571Z,990.41
2023-01-17T16:30:03.661Z,990.54
2023-01-17T16:35:03.387Z,990.51
2023-01-17T16:40:03.461Z,990.54
2023-01-17T16:45:03.671Z,990.64
2023-01-17T16:50:03.095Z,990.64
2023-01-17T16:55:03.580Z,990.72
2023-01-17T17:00:03.444Z,990.71
2023-01-17T17:05:03.463Z,990.74
2023-01-17T17:10:03.344Z,990.76
2023-01-17T17:15:03.014Z,990.79
2023-01-17T17:20:02.795Z,990.73
2023-01-17T17:25:03.259Z,990.69
2023-01-17T17:30:02.704Z,990.68
2023-01-17T17:35:03.738Z,990.67
2023-01-17T17:40:03.243Z,990.65
2023-01-17T17:45:03.262Z,990.59
2023-01-17T17:50:03.246Z,990.62
2023-01-17T17:55:02.893Z,990.85
2023-01-17T18:00:03.192Z,990.77
2023-01-17T18:05:03.195Z,990.84
2023-01-17T18:10:03.524Z,990.79
2023-01-17T18:15:03.411Z,990.81
2023-01-17T18:20:03.183Z,990.82
2023-01-17T18:25:02.912Z,990.78
2023-01-17T18:30:02.716Z,990.69
2023-01-17T18:35:03.590Z,990.7
2023-01-17T18:40:03.519Z,990.72
2023-01-17T18:45:03.344Z,990.74
2023-01-17T18:50:03.065Z,990.75
2023-01-17T18:55:03.104Z,990.84
2023-01-17T19:00:02.846Z,990.84
2023-01-17T19:05:08.542Z,990.87
2023-01-17T19:10:03.284Z,990.93
2023-01-17T19:15:03.347Z,991.05
2023-01-17T19:20:02.968Z,990.96
2023-01-17T19:25:02.667Z,991
2023-01-17T19:30:03.542Z,990.96
2023-01-17T19:35:03.457Z,991.01
2023-01-17T19:40:03.414Z,991.16
2023-01-17T19:45:03.171Z,991.05
2023-01-17T19:50:02.941Z,991.07
2023-01-17T19:55:03.086Z,990.94
2023-01-17T20:00:03.331Z,991.12
2023-01-17T20:05:02.748Z,991.19
2023-01-17T20:10:03.651Z,991.27
2023-01-17T20:15:03.362Z,991.57
2023-01-17T20:20:02.525Z,991.66
2023-01-17T20:25:03.457Z,991.64
2023-01-17T20:30:21.082Z,991.85
2023-01-17T20:35:02.741Z,991.99
2023-01-17T20:40:03.494Z,992.1
2023-01-17T20:45:03.239Z,991.97
2023-01-17T20:50:03.111Z,992.06
2023-01-17T20:55:02.805Z,992.03
2023-01-17T21:00:03.471Z,992.14
2023-01-17T21:05:03.216Z,992.13
2023-01-17T21:10:03.380Z,992.15
2023-01-17T21:15:02.768Z,992.22
2023-01-17T21:20:02.733Z,992.34
2023-01-17T21:25:03.538Z,992.41
2023-01-17T21:30:03.436Z,992.33
2023-01-17T21:35:03.495Z,992.42
2023-01-17T21:40:05.833Z,992.4
2023-01-17T21:45:07.859Z,992.39
2023-01-17T21:50:03.523Z,992.48
2023-01-17T21:55:03.466Z,992.5
2023-01-17T22:00:03.206Z,992.52
2023-01-17T22:05:03.117Z,992.47
2023-01-17T22:10:02.713Z,992.41
2023-01-17T22:15:03.469Z,992.56
2023-01-17T22:20:03.585Z,992.55
2023-01-17T22:25:03.334Z,992.56
2023-01-17T22:30:03.077Z,992.4
2023-01-17T22:35:07.163Z,992.41
2023-01-17T22:40:02.917Z,992.32
2023-01-17T22:45:03.108Z,992.26
2023-01-17T22:50:03.267Z,992.35
2023-01-17T22:55:03.496Z,992.31
2023-01-17T23:00:03.344Z,992.19
2023-01-17T23:05:02.866Z,992
2023-01-17T23:10:03.604Z,991.97
2023-01-17T23:15:02.906Z,991.93
2023-01-17T23:20:02.819Z,991.85
2023-01-17T23:25:02.756Z,991.8
2023-01-17T23:30:03.676Z,991.62
2023-01-17T23:35:03.407Z,991.61
2023-01-17T23:40:03.201Z,991.64
2023-01-17T23:45:02.411Z,991.62
2023-01-17T23:50:02.626Z,991.44
2023-01-17T23:55:03.746Z,991.46
